Time;durP1;ratioP1;P1;durP2;ratioP2;P2;SDS_P1;SDS_P2;PMS_P1;PMS_P2;Temp;Humidity;BMP_temperature;BMP_pressure;BME280_temperature;BME280_humidity;BME280_pressure;Samples;Min_cycle;Max_cycle;Signal;HPM_P1;HPM_P2
2022/11/29 00:00:57;;;;;;;;;;;9.60;91.10;;;;;;5051553;28;19987;-86
2022/11/29 00:03:22;;;;;;;;;;;9.70;91.10;;;;;;5030070;28;20015;-86
2022/11/29 00:05:48;;;;;;;;;;;9.70;91.00;;;;;;5050611;28;19967;-86
2022/11/29 00:08:13;;;;;;;;;;;9.70;90.90;;;;;;5049263;28;19917;-86
2022/11/29 00:10:39;;;;;;;;;;;9.60;90.90;;;;;;5041418;28;19920;-86
2022/11/29 00:13:04;;;;;;;;;;;9.70;90.90;;;;;;5048933;28;19921;-86
2022/11/29 00:15:33;;;;;;;;;;;9.70;90.90;;;;;;5050188;28;19940;-85
2022/11/29 00:17:59;;;;;;;;;;;9.70;90.90;;;;;;5039233;28;19920;-85
2022/11/29 00:20:24;;;;;;;;;;;9.70;90.80;;;;;;5037518;28;19935;-85
2022/11/29 00:22:50;;;;;;;;;;;9.70;90.90;;;;;;5038533;28;20425;-86
2022/11/29 00:25:15;;;;;;;;;;;9.80;90.90;;;;;;5035638;28;19913;-85
2022/11/29 00:27:40;;;;;;;;;;;9.80;90.80;;;;;;5033432;28;19925;-86
2022/11/29 00:30:06;;;;;;;;;;;9.80;90.80;;;;;;5046025;28;19916;-85
2022/11/29 00:32:32;;;;;;;;;;;9.80;90.80;;;;;;5049712;28;20382;-86
2022/11/29 00:34:57;;;;;;;;;;;9.80;90.40;;;;;;5048785;28;19916;-85
2022/11/29 00:37:23;;;;;;;;;;;9.80;90.60;;;;;;5049622;28;19913;-86
2022/11/29 00:39:48;;;;;;;;;;;9.80;90.60;;;;;;5048651;28;19943;-85
2022/11/29 00:42:14;;;;;;;;;;;9.80;90.60;;;;;;5049798;28;20016;-86
2022/11/29 00:44:39;;;;;;;;;;;9.80;90.60;;;;;;5032249;28;20413;-86
2022/11/29 00:47:05;;;;;;;;;;;9.90;90.50;;;;;;5031491;28;20235;-85
2022/11/29 00:49:30;;;;;;;;;;;9.90;90.50;;;;;;5034654;28;19911;-85
2022/11/29 00:51:56;;;;;;;;;;;10.00;90.40;;;;;;5054626;28;19917;-85
2022/11/29 00:54:21;;;;;;;;;;;9.90;90.30;;;;;;5051052;28;19917;-86
2022/11/29 00:56:47;;;;;;;;;;;9.90;90.40;;;;;;5034265;28;19944;-86
2022/11/29 00:59:12;;;;;;;;;;;9.90;90.40;;;;;;5036398;28;19913;-85
2022/11/29 01:01:38;;;;;;;;;;;10.00;90.50;;;;;;5049180;28;19916;-86
2022/11/29 01:04:03;;;;;;;;;;;10.00;90.30;;;;;;5047378;28;19917;-85
2022/11/29 01:06:29;;;;;;;;;;;9.90;90.20;;;;;;5053500;28;19912;-85
2022/11/29 01:08:54;;;;;;;;;;;9.90;90.20;;;;;;5053173;28;19938;-85
2022/11/29 01:11:24;;;;;;;;;;;9.90;90.40;;;;;;5046278;28;19923;-85
2022/11/29 01:13:51;;;;;;;;;;;9.90;90.40;;;;;;5034655;28;19958;-85
2022/11/29 01:16:17;;;;;;;;;;;9.90;90.30;;;;;;5030936;28;19913;-85
2022/11/29 01:18:43;;;;;;;;;;;9.90;90.30;;;;;;5034585;28;19919;-85
2022/11/29 01:21:13;;;;;;;;;;;9.90;90.40;;;;;;5051889;28;19913;-85
2022/11/29 01:23:39;;;;;;;;;;;9.90;90.40;;;;;;5032270;28;19913;-85
2022/11/29 01:26:06;;;;;;;;;;;9.90;90.10;;;;;;5049139;28;20218;-85
2022/11/29 01:28:32;;;;;;;;;;;9.90;90.20;;;;;;5033446;28;20298;-85
2022/11/29 01:30:58;;;;;;;;;;;9.90;90.20;;;;;;5051537;28;19920;-85
2022/11/29 01:33:23;;;;;;;;;;;9.90;90.40;;;;;;5030991;28;19920;-85
2022/11/29 01:35:50;;;;;;;;;;;10.00;90.30;;;;;;5041453;28;20367;-85
2022/11/29 01:38:16;;;;;;;;;;;10.00;90.20;;;;;;5041479;28;20011;-85
2022/11/29 01:40:41;;;;;;;;;;;9.90;90.20;;;;;;5037562;28;19988;-85
2022/11/29 01:43:16;;;;;;;;;;;9.90;90.30;;;;;;5050568;28;19912;-86
2022/11/29 01:45:42;;;;;;;;;;;9.90;90.40;;;;;;5033572;28;19912;-86
2022/11/29 01:48:08;;;;;;;;;;;9.90;90.50;;;;;;5036866;28;20348;-85
2022/11/29 01:50:33;;;;;;;;;;;10.00;90.40;;;;;;5040825;28;19917;-86
2022/11/29 01:52:59;;;;;;;;;;;9.90;90.40;;;;;;5039524;28;19912;-85
2022/11/29 01:55:25;;;;;;;;;;;9.90;90.40;;;;;;5035526;28;19928;-85
2022/11/29 01:57:51;;;;;;;;;;;10.00;90.20;;;;;;5045511;28;19955;-85
2022/11/29 02:00:17;;;;;;;;;;;10.00;90.20;;;;;;5033621;28;19952;-86
2022/11/29 02:02:42;;;;;;;;;;;10.00;90.20;;;;;;5045704;28;19913;-86
2022/11/29 02:05:09;;;;;;;;;;;10.00;89.50;;;;;;5038942;28;19954;-85
2022/11/29 02:07:34;;;;;;;;;;;10.00;89.80;;;;;;5051517;28;19921;-86
2022/11/29 02:10:00;;;;;;;;;;;9.90;90.00;;;;;;5033105;28;19916;-86
2022/11/29 02:12:32;;;;;;;;;;;10.10;89.70;;;;;;5032594;28;19921;-86
2022/11/29 02:14:57;;;;;;;;;;;10.00;89.80;;;;;;5035558;28;19958;-86
2022/11/29 02:17:23;;;;;;;;;;;10.00;89.70;;;;;;5032686;28;19952;-86
2022/11/29 02:20:07;;;;;;;;;;;9.90;90.00;;;;;;5040796;28;19967;-86
2022/11/29 02:22:33;;;;;;;;;;;9.90;90.30;;;;;;5027475;28;19955;-85
2022/11/29 02:25:07;;;;;;;;;;;9.80;90.00;;;;;;5053492;28;20012;-86
2022/11/29 02:27:45;;;;;;;;;;;9.80;90.00;;;;;;5036810;28;19939;-86
2022/11/29 02:30:37;;;;;;;;;;;9.90;89.70;;;;;;5039478;28;20015;-86
2022/11/29 02:33:05;;;;;;;;;;;10.00;89.20;;;;;;5047104;28;19913;-86
2022/11/29 02:35:46;;;;;;;;;;;10.00;89.60;;;;;;5038814;28;19983;-86
2022/11/29 02:38:15;;;;;;;;;;;9.90;89.30;;;;;;5028685;28;19975;-86
2022/11/29 02:40:56;;;;;;;;;;;9.90;89.50;;;;;;5052122;28;19913;-85
2022/11/29 02:43:31;;;;;;;;;;;9.80;89.60;;;;;;5036674;28;19963;-85
2022/11/29 02:45:59;;;;;;;;;;;9.80;89.80;;;;;;5035933;28;19938;-86
2022/11/29 02:48:34;;;;;;;;;;;9.90;90.30;;;;;;5054070;28;19929;-85
2022/11/29 02:50:59;;;;;;;;;;;9.80;89.70;;;;;;5040846;28;19966;-85
2022/11/29 02:53:37;;;;;;;;;;;9.80;90.00;;;;;;5033592;28;20332;-85
2022/11/29 02:56:21;;;;;;;;;;;9.80;89.90;;;;;;5048211;28;19913;-85
2022/11/29 02:58:53;;;;;;;;;;;9.80;89.70;;;;;;5046380;28;19944;-85
2022/11/29 03:01:18;;;;;;;;;;;9.80;89.90;;;;;;5039824;28;19912;-85
2022/11/29 03:03:51;;;;;;;;;;;9.80;89.90;;;;;;5029216;28;20087;-85
2022/11/29 03:06:22;;;;;;;;;;;9.80;90.10;;;;;;5035899;28;19920;-85
2022/11/29 03:08:51;;;;;;;;;;;9.80;89.90;;;;;;5037225;28;19943;-85
2022/11/29 03:11:22;;;;;;;;;;;9.80;90.00;;;;;;5043501;28;20427;-85
2022/11/29 03:14:07;;;;;;;;;;;9.90;90.30;;;;;;5050385;28;19966;-85
2022/11/29 03:16:44;;;;;;;;;;;9.90;89.30;;;;;;5032979;28;19951;-86
2022/11/29 03:19:22;;;;;;;;;;;9.90;89.40;;;;;;5038983;28;19920;-85
2022/11/29 03:21:58;;;;;;;;;;;9.90;89.70;;;;;;5043563;28;19917;-85
2022/11/29 03:24:33;;;;;;;;;;;9.80;89.90;;;;;;5036238;28;19928;-85
2022/11/29 03:27:02;;;;;;;;;;;10.00;89.30;;;;;;5032031;28;19913;-86
2022/11/29 03:29:33;;;;;;;;;;;9.90;89.50;;;;;;5051561;28;19963;-86
2022/11/29 03:32:04;;;;;;;;;;;9.80;89.80;;;;;;5032544;28;20031;-86
2022/11/29 03:34:29;;;;;;;;;;;9.80;90.10;;;;;;5032597;28;19916;-85
2022/11/29 03:37:13;;;;;;;;;;;9.90;89.60;;;;;;5035880;28;19977;-85
2022/11/29 03:39:48;;;;;;;;;;;9.70;89.70;;;;;;5028967;28;19920;-85
2022/11/29 03:42:32;;;;;;;;;;;9.70;90.30;;;;;;5039450;28;19932;-86
2022/11/29 03:45:01;;;;;;;;;;;9.70;89.90;;;;;;5036373;28;19958;-85
2022/11/29 03:47:29;;;;;;;;;;;9.60;89.90;;;;;;5027983;28;20003;-86
2022/11/29 03:49:57;;;;;;;;;;;9.60;90.30;;;;;;5033777;28;19920;-86
2022/11/29 03:52:30;;;;;;;;;;;9.60;90.40;;;;;;5038536;28;19913;-86
2022/11/29 03:55:09;;;;;;;;;;;9.60;90.50;;;;;;5050055;28;20409;-85
2022/11/29 03:57:53;;;;;;;;;;;9.60;90.20;;;;;;5050148;28;19932;-85
2022/11/29 04:00:19;;;;;;;;;;;9.60;90.50;;;;;;5050599;28;19913;-86
2022/11/29 04:03:03;;;;;;;;;;;9.60;90.40;;;;;;5049187;28;20434;-85
2022/11/29 04:05:39;;;;;;;;;;;9.60;90.60;;;;;;5030541;28;19968;-85
2022/11/29 04:08:23;;;;;;;;;;;9.50;90.30;;;;;;5049799;28;19925;-85
2022/11/29 04:11:07;;;;;;;;;;;9.50;90.60;;;;;;5047259;28;19919;-86
2022/11/29 04:13:43;;;;;;;;;;;9.50;90.40;;;;;;5030678;28;19959;-85
2022/11/29 04:16:30;;;;;;;;;;;9.40;90.70;;;;;;5043260;28;20014;-85
2022/11/29 04:19:14;;;;;;;;;;;9.40;91.00;;;;;;5031789;28;19916;-85
2022/11/29 04:21:58;;;;;;;;;;;9.40;91.00;;;;;;5049288;28;19912;-86
2022/11/29 04:24:30;;;;;;;;;;;9.40;90.60;;;;;;5048131;28;20309;-86
2022/11/29 04:27:05;;;;;;;;;;;9.50;90.70;;;;;;5028012;28;20179;-85
2022/11/29 04:29:49;;;;;;;;;;;9.50;90.40;;;;;;5048742;28;19912;-85
2022/11/29 04:32:24;;;;;;;;;;;9.50;90.40;;;;;;5047350;28;20021;-86
2022/11/29 04:35:16;;;;;;;;;;;9.30;90.60;;;;;;5036980;28;20512;-85
2022/11/29 04:37:50;;;;;;;;;;;9.30;90.40;;;;;;5043993;28;19913;-85
2022/11/29 04:40:34;;;;;;;;;;;9.30;90.60;;;;;;5030235;28;19912;-86
2022/11/29 04:43:19;;;;;;;;;;;9.40;90.60;;;;;;5050097;28;19912;-86
2022/11/29 04:45:54;;;;;;;;;;;9.30;90.30;;;;;;5032463;28;20385;-86
2022/11/29 04:48:22;;;;;;;;;;;9.30;90.30;;;;;;5039978;28;19924;-86
2022/11/29 04:51:05;;;;;;;;;;;9.30;90.70;;;;;;5055396;28;19941;-86
2022/11/29 04:53:39;;;;;;;;;;;9.40;90.70;;;;;;5042473;28;20332;-86
2022/11/29 04:56:10;;;;;;;;;;;9.40;90.60;;;;;;5038822;28;20336;-85
2022/11/29 04:58:42;;;;;;;;;;;9.40;90.20;;;;;;5034600;28;20395;-86
2022/11/29 05:01:07;;;;;;;;;;;9.40;90.30;;;;;;5049990;28;19913;-85
2022/11/29 05:03:32;;;;;;;;;;;9.40;90.30;;;;;;5029040;28;19955;-85
2022/11/29 05:05:58;;;;;;;;;;;9.40;90.20;;;;;;5042239;28;19919;-85
2022/11/29 05:08:23;;;;;;;;;;;9.40;90.30;;;;;;5032191;28;19925;-86
2022/11/29 05:11:01;;;;;;;;;;;9.40;90.40;;;;;;5035214;28;19958;-85
2022/11/29 05:13:37;;;;;;;;;;;9.50;90.40;;;;;;5038581;28;19927;-86
2022/11/29 05:16:15;;;;;;;;;;;9.50;90.10;;;;;;5030979;28;19920;-84
2022/11/29 05:19:03;;;;;;;;;;;9.40;90.10;;;;;;5045765;28;19953;-84
2022/11/29 05:21:40;;;;;;;;;;;9.40;90.30;;;;;;5030780;28;20382;-84
2022/11/29 05:24:25;;;;;;;;;;;9.50;89.70;;;;;;5040213;28;19928;-85
2022/11/29 05:27:13;;;;;;;;;;;9.50;89.60;;;;;;5055972;28;19955;-85
2022/11/29 05:29:45;;;;;;;;;;;9.50;89.60;;;;;;4997889;28;19924;-84
2022/11/29 05:32:29;;;;;;;;;;;9.50;89.70;;;;;;5050290;28;19924;-84
2022/11/29 05:35:13;;;;;;;;;;;9.50;89.60;;;;;;5054975;28;19961;-84
2022/11/29 05:37:48;;;;;;;;;;;9.50;89.90;;;;;;5048601;28;19913;-84
2022/11/29 05:40:22;;;;;;;;;;;9.50;89.70;;;;;;5040346;28;20251;-85
2022/11/29 05:43:04;;;;;;;;;;;9.50;89.30;;;;;;5044927;28;19956;-84
2022/11/29 05:45:42;;;;;;;;;;;9.50;89.40;;;;;;5037252;28;19939;-85
2022/11/29 05:48:20;;;;;;;;;;;9.50;89.40;;;;;;5053557;28;20382;-85
2022/11/29 05:50:48;;;;;;;;;;;9.50;89.50;;;;;;5037932;28;19921;-83
2022/11/29 05:53:32;;;;;;;;;;;9.60;88.80;;;;;;5036315;28;19912;-86
2022/11/29 05:56:19;;;;;;;;;;;9.60;88.20;;;;;;5036219;28;19913;-85
2022/11/29 05:58:59;;;;;;;;;;;9.50;88.60;;;;;;5039576;28;19920;-86
2022/11/29 06:01:28;;;;;;;;;;;9.40;88.60;;;;;;5037210;28;19916;-85
2022/11/29 06:04:12;;;;;;;;;;;9.40;88.80;;;;;;5051703;28;19913;-86
2022/11/29 06:06:50;;;;;;;;;;;9.50;88.50;;;;;;5034359;28;20434;-84
2022/11/29 06:09:27;;;;;;;;;;;9.40;88.50;;;;;;5039944;28;19901;-86
2022/11/29 06:12:04;;;;;;;;;;;9.40;88.60;;;;;;5069571;28;20573;-85
2022/11/29 06:14:48;;;;;;;;;;;9.40;88.90;;;;;;5057821;28;19913;-85
2022/11/29 06:17:32;;;;;;;;;;;9.40;88.80;;;;;;5057418;28;20340;-85
2022/11/29 06:20:18;;;;;;;;;;;9.50;88.80;;;;;;5035627;28;20293;-84
2022/11/29 06:23:04;;;;;;;;;;;9.50;88.60;;;;;;5041834;28;19920;-85
2022/11/29 06:25:30;;;;;;;;;;;9.40;88.80;;;;;;5050544;28;19921;-84
2022/11/29 06:28:14;;;;;;;;;;;9.40;88.90;;;;;;5036997;28;19924;-84
2022/11/29 06:31:00;;;;;;;;;;;9.40;89.00;;;;;;5047126;28;19913;-84
2022/11/29 06:33:31;;;;;;;;;;;9.50;88.60;;;;;;5047823;28;19931;-85
2022/11/29 06:36:03;;;;;;;;;;;9.40;87.80;;;;;;5033290;28;20285;-84
2022/11/29 06:38:29;;;;;;;;;;;9.50;87.90;;;;;;5035606;28;19913;-85
2022/11/29 06:40:56;;;;;;;;;;;9.40;87.90;;;;;;5055313;28;19913;-84
2022/11/29 06:43:21;;;;;;;;;;;9.30;88.00;;;;;;5050231;28;19925;-84
2022/11/29 06:45:51;;;;;;;;;;;9.30;88.30;;;;;;5033383;28;20465;-84
2022/11/29 06:48:24;;;;;;;;;;;9.40;88.30;;;;;;5055928;28;19917;-84
2022/11/29 06:50:49;;;;;;;;;;;9.40;88.50;;;;;;5038471;28;20442;-84
2022/11/29 06:53:15;;;;;;;;;;;9.50;88.30;;;;;;5049779;28;19917;-84
2022/11/29 06:55:58;;;;;;;;;;;9.50;88.30;;;;;;5046471;28;20294;-84
2022/11/29 06:58:33;;;;;;;;;;;9.40;88.40;;;;;;5058217;28;19913;-84
2022/11/29 07:00:58;;;;;;;;;;;9.40;88.10;;;;;;5034687;28;19917;-84
2022/11/29 07:03:34;;;;;;;;;;;9.30;88.20;;;;;;5035383;28;19925;-84
2022/11/29 07:06:03;;;;;;;;;;;9.40;88.20;;;;;;5040363;28;19916;-84
2022/11/29 07:08:28;;;;;;;;;;;9.30;87.90;;;;;;5039507;28;20304;-84
2022/11/29 07:10:54;;;;;;;;;;;9.30;87.80;;;;;;5038801;28;19992;-84
2022/11/29 07:13:20;;;;;;;;;;;9.30;87.00;;;;;;5034235;28;19959;-84
2022/11/29 07:15:51;;;;;;;;;;;9.30;87.10;;;;;;5060563;28;19913;-84
2022/11/29 07:18:30;;;;;;;;;;;9.20;87.10;;;;;;5042195;28;20428;-84
2022/11/29 07:21:07;;;;;;;;;;;9.20;87.50;;;;;;5036668;28;19916;-81
2022/11/29 07:23:51;;;;;;;;;;;9.10;88.00;;;;;;5036365;28;19920;-82
2022/11/29 07:26:26;;;;;;;;;;;9.20;87.80;;;;;;5025612;28;20083;-83
2022/11/29 07:29:14;;;;;;;;;;;9.10;87.60;;;;;;5052788;28;20634;-83
2022/11/29 07:31:55;;;;;;;;;;;9.20;86.80;;;;;;5050715;28;20286;-83
2022/11/29 07:34:45;;;;;;;;;;;9.10;86.80;;;;;;5037400;28;19916;-83
2022/11/29 07:37:21;;;;;;;;;;;9.10;86.80;;;;;;5034857;28;19913;-85
2022/11/29 07:39:58;;;;;;;;;;;9.10;86.80;;;;;;5037556;28;20320;-85
2022/11/29 07:42:32;;;;;;;;;;;9.20;86.30;;;;;;5043738;28;20298;-85
2022/11/29 07:45:16;;;;;;;;;;;9.10;86.60;;;;;;5054503;28;19935;-83
2022/11/29 07:47:41;;;;;;;;;;;9.20;86.60;;;;;;5038232;28;19980;-86
2022/11/29 07:50:07;;;;;;;;;;;9.10;86.80;;;;;;5042044;28;19900;-86
2022/11/29 07:52:32;;;;;;;;;;;9.10;86.80;;;;;;5054000;28;19940;-86
2022/11/29 07:54:58;;;;;;;;;;;9.20;87.10;;;;;;5053210;28;20596;-86
2022/11/29 07:57:26;;;;;;;;;;;9.20;87.30;;;;;;5034866;28;19919;-86
2022/11/29 07:59:51;;;;;;;;;;;9.20;87.40;;;;;;5054128;28;19912;-86
2022/11/29 08:02:31;;;;;;;;;;;9.20;87.40;;;;;;5049683;28;19920;-86
2022/11/29 08:04:57;;;;;;;;;;;9.20;86.90;;;;;;5037214;28;19936;-85
2022/11/29 08:07:23;;;;;;;;;;;9.20;87.50;;;;;;5052513;28;19913;-83
2022/11/29 08:09:48;;;;;;;;;;;9.20;87.40;;;;;;5038777;28;19920;-83
2022/11/29 08:12:14;;;;;;;;;;;9.30;87.40;;;;;;5032982;28;19978;-83
2022/11/29 08:14:39;;;;;;;;;;;9.20;87.40;;;;;;5036822;28;20000;-83
2022/11/29 08:17:05;;;;;;;;;;;9.30;86.60;;;;;;5051952;28;19962;-82
2022/11/29 08:19:30;;;;;;;;;;;9.30;86.50;;;;;;5035441;28;20000;-82
2022/11/29 08:21:55;;;;;;;;;;;9.30;86.50;;;;;;5050799;28;19928;-82
2022/11/29 08:24:21;;;;;;;;;;;9.30;86.80;;;;;;5038534;28;19919;-82
2022/11/29 08:26:46;;;;;;;;;;;9.40;86.80;;;;;;5037012;28;19990;-83
2022/11/29 08:29:12;;;;;;;;;;;9.40;87.40;;;;;;5041976;28;19917;-83
2022/11/29 08:31:38;;;;;;;;;;;9.40;87.30;;;;;;5035713;28;20002;-83
2022/11/29 08:34:07;;;;;;;;;;;9.50;87.40;;;;;;5045507;28;19917;-83
2022/11/29 08:36:32;;;;;;;;;;;9.50;87.70;;;;;;5044419;28;19913;-84
2022/11/29 08:39:01;;;;;;;;;;;9.50;87.90;;;;;;5035020;28;19971;-84
2022/11/29 08:41:26;;;;;;;;;;;9.60;87.40;;;;;;5042054;28;19918;-82
2022/11/29 08:43:52;;;;;;;;;;;9.60;87.30;;;;;;5050714;28;19916;-82
2022/11/29 08:46:17;;;;;;;;;;;9.60;87.40;;;;;;5040327;28;20339;-82
2022/11/29 08:48:43;;;;;;;;;;;9.60;87.50;;;;;;5031057;28;20374;-84
2022/11/29 08:51:08;;;;;;;;;;;9.60;87.20;;;;;;5051231;28;19913;-83
2022/11/29 08:53:45;;;;;;;;;;;9.60;87.10;;;;;;5040938;28;19948;-83
2022/11/29 08:56:11;;;;;;;;;;;9.60;87.40;;;;;;5033589;28;20023;-83
2022/11/29 08:58:37;;;;;;;;;;;9.70;87.10;;;;;;5049871;28;19917;-83
2022/11/29 09:01:03;;;;;;;;;;;9.70;87.00;;;;;;5050820;28;19908;-85
2022/11/29 09:06:15;;;;;;;;;;;9.80;86.60;;;;;;5050971;28;19967;-84
2022/11/29 09:08:42;;;;;;;;;;;9.80;86.60;;;;;;5036027;28;19920;-85
2022/11/29 09:11:11;;;;;;;;;;;9.80;86.30;;;;;;5036136;28;19958;-85
2022/11/29 09:13:46;;;;;;;;;;;9.80;86.40;;;;;;5052428;28;19916;-86
2022/11/29 09:16:13;;;;;;;;;;;9.80;86.20;;;;;;5033056;28;20374;-84
2022/11/29 09:18:39;;;;;;;;;;;9.80;85.70;;;;;;5046999;28;19913;-83
2022/11/29 09:21:09;;;;;;;;;;;9.80;85.50;;;;;;5033054;28;19924;-83
2022/11/29 09:23:35;;;;;;;;;;;9.80;85.50;;;;;;5037978;28;20383;-84
2022/11/29 09:26:00;;;;;;;;;;;9.80;85.60;;;;;;5050135;28;19924;-83
2022/11/29 09:28:26;;;;;;;;;;;9.80;85.90;;;;;;5032960;28;20487;-83
2022/11/29 09:30:52;;;;;;;;;;;9.80;85.60;;;;;;5041420;28;19916;-85
2022/11/29 09:33:17;;;;;;;;;;;9.90;85.60;;;;;;5052482;28;19921;-84
2022/11/29 09:35:43;;;;;;;;;;;9.90;85.50;;;;;;5059390;28;19921;-83
2022/11/29 09:38:12;;;;;;;;;;;9.90;85.20;;;;;;5036383;28;19909;-84
2022/11/29 09:40:45;;;;;;;;;;;10.00;85.40;;;;;;5035820;28;19944;-86
2022/11/29 09:43:22;;;;;;;;;;;10.00;85.30;;;;;;5036931;28;20262;-84
2022/11/29 09:45:52;;;;;;;;;;;10.00;85.10;;;;;;5034613;28;19928;-84
2022/11/29 09:48:27;;;;;;;;;;;10.00;85.20;;;;;;5051507;28;20022;-83
2022/11/29 09:50:56;;;;;;;;;;;10.00;85.30;;;;;;5052872;28;19917;-84
2022/11/29 09:53:22;;;;;;;;;;;9.90;85.70;;;;;;5052019;28;19940;-84
2022/11/29 09:55:51;;;;;;;;;;;10.00;85.40;;;;;;5052091;28;19917;-84
2022/11/29 09:58:19;;;;;;;;;;;10.00;86.00;;;;;;5052306;28;20015;-84
2022/11/29 10:00:48;;;;;;;;;;;10.10;85.50;;;;;;5050239;28;20562;-86
2022/11/29 10:03:25;;;;;;;;;;;10.10;84.40;;;;;;5046998;28;19909;-83
2022/11/29 10:06:02;;;;;;;;;;;10.00;84.40;;;;;;5033374;28;19917;-83
2022/11/29 10:08:37;;;;;;;;;;;10.00;85.00;;;;;;5036298;28;19935;-83
2022/11/29 10:11:14;;;;;;;;;;;10.10;85.00;;;;;;5055377;28;19966;-84
2022/11/29 10:13:44;;;;;;;;;;;10.20;84.60;;;;;;5038338;28;19912;-83
2022/11/29 10:16:28;;;;;;;;;;;10.20;84.60;;;;;;5049560;28;20424;-84
2022/11/29 10:19:02;;;;;;;;;;;10.20;84.90;;;;;;5055212;28;20385;-84
2022/11/29 10:21:29;;;;;;;;;;;10.20;84.90;;;;;;5035243;28;19920;-84
2022/11/29 10:23:58;;;;;;;;;;;10.30;85.00;;;;;;5053943;28;19913;-84
2022/11/29 10:26:23;;;;;;;;;;;10.30;84.10;;;;;;5047493;28;20457;-85
2022/11/29 10:28:49;;;;;;;;;;;10.30;84.50;;;;;;5056095;28;19956;-85
2022/11/29 10:31:15;;;;;;;;;;;10.30;84.50;;;;;;5037934;28;19917;-84
2022/11/29 10:33:40;;;;;;;;;;;10.30;84.90;;;;;;5035229;28;19920;-86
2022/11/29 10:36:15;;;;;;;;;;;10.30;84.10;;;;;;5034579;28;19912;-83
2022/11/29 10:38:42;;;;;;;;;;;10.30;83.80;;;;;;5046288;28;19977;-83
2022/11/29 10:41:09;;;;;;;;;;;10.30;83.80;;;;;;5056892;28;20594;-83
2022/11/29 10:43:36;;;;;;;;;;;10.20;84.40;;;;;;5053022;28;19916;-85
2022/11/29 10:46:02;;;;;;;;;;;10.20;84.30;;;;;;5038767;28;19921;-83
2022/11/29 10:48:30;;;;;;;;;;;10.20;84.70;;;;;;5056107;28;19912;-84
2022/11/29 10:50:56;;;;;;;;;;;10.20;84.80;;;;;;5041111;28;19917;-84
2022/11/29 10:53:23;;;;;;;;;;;10.20;85.20;;;;;;5047990;28;19951;-84
2022/11/29 10:55:50;;;;;;;;;;;10.20;84.60;;;;;;5035945;28;19959;-84
2022/11/29 10:58:24;;;;;;;;;;;10.20;84.60;;;;;;5035993;28;19920;-84
2022/11/29 11:00:54;;;;;;;;;;;10.10;84.60;;;;;;5037486;28;20385;-84
2022/11/29 11:03:38;;;;;;;;;;;10.10;85.00;;;;;;5050667;28;19909;-84
2022/11/29 11:06:12;;;;;;;;;;;10.10;85.40;;;;;;5036119;28;20325;-84
2022/11/29 11:08:40;;;;;;;;;;;10.20;85.40;;;;;;5029641;28;19921;-84
2022/11/29 11:11:06;;;;;;;;;;;10.10;84.90;;;;;;5034810;28;20016;-84
2022/11/29 11:13:32;;;;;;;;;;;10.10;85.00;;;;;;5056930;28;19947;-86
2022/11/29 11:16:07;;;;;;;;;;;10.10;85.30;;;;;;5043164;28;19917;-85
2022/11/29 11:18:33;;;;;;;;;;;10.30;84.50;;;;;;5050084;28;20085;-86
2022/11/29 11:21:00;;;;;;;;;;;10.30;84.30;;;;;;5058763;28;19913;-85
2022/11/29 11:23:35;;;;;;;;;;;10.30;83.70;;;;;;5058583;28;19916;-84
2022/11/29 11:26:05;;;;;;;;;;;10.30;84.20;;;;;;5049285;28;20489;-85
2022/11/29 11:28:36;;;;;;;;;;;10.20;84.60;;;;;;5050872;28;20283;-84
2022/11/29 11:31:07;;;;;;;;;;;10.20;84.30;;;;;;5064517;28;19912;-84
2022/11/29 11:33:34;;;;;;;;;;;10.20;84.60;;;;;;5037690;28;19916;-84
2022/11/29 11:36:00;;;;;;;;;;;10.20;84.80;;;;;;5037775;28;20716;-84
2022/11/29 11:38:26;;;;;;;;;;;10.30;84.70;;;;;;5056335;28;19920;-84
2022/11/29 11:41:03;;;;;;;;;;;10.30;84.80;;;;;;5055062;28;20239;-84
2022/11/29 11:43:28;;;;;;;;;;;10.30;84.70;;;;;;5050331;28;20370;-84
2022/11/29 11:45:54;;;;;;;;;;;10.20;84.80;;;;;;5038078;28;19909;-84
2022/11/29 11:48:19;;;;;;;;;;;10.20;85.40;;;;;;5036379;28;19920;-84
2022/11/29 11:50:48;;;;;;;;;;;10.20;85.50;;;;;;5035886;28;19916;-84
2022/11/29 11:53:22;;;;;;;;;;;10.10;85.30;;;;;;5040008;28;19912;-84
2022/11/29 11:55:56;;;;;;;;;;;10.20;84.90;;;;;;5052825;28;20352;-84
2022/11/29 11:58:23;;;;;;;;;;;10.20;84.50;;;;;;5040872;28;19909;-84
2022/11/29 12:00:52;;;;;;;;;;;10.10;85.20;;;;;;5036032;28;19917;-79
2022/11/29 12:03:36;;;;;;;;;;;10.10;85.90;;;;;;5049968;28;20225;-82
2022/11/29 12:06:10;;;;;;;;;;;10.10;85.60;;;;;;5051196;28;19966;-81
2022/11/29 12:08:36;;;;;;;;;;;10.10;85.70;;;;;;5039491;28;19932;-81
2022/11/29 12:11:04;;;;;;;;;;;10.10;85.60;;;;;;5049427;28;20313;-81
2022/11/29 12:13:31;;;;;;;;;;;10.20;85.20;;;;;;5023080;28;19913;-81
2022/11/29 12:15:59;;;;;;;;;;;10.20;85.30;;;;;;5053453;28;20000;-81
2022/11/29 12:18:34;;;;;;;;;;;10.20;85.30;;;;;;5043430;28;20420;-81
2022/11/29 12:21:20;;;;;;;;;;;10.10;85.50;;;;;;5041575;28;19916;-81
2022/11/29 12:23:54;;;;;;;;;;;10.10;85.20;;;;;;5051906;28;19996;-81
2022/11/29 12:26:21;;;;;;;;;;;10.10;85.30;;;;;;5052067;28;19913;-81
2022/11/29 12:28:46;;;;;;;;;;;10.00;85.70;;;;;;5038829;28;20007;-80
2022/11/29 12:31:31;;;;;;;;;;;9.90;86.00;;;;;;5051972;28;19959;-80
2022/11/29 12:34:02;;;;;;;;;;;9.90;86.20;;;;;;5051087;28;19924;-80
2022/11/29 12:36:36;;;;;;;;;;;10.00;86.40;;;;;;5033115;28;19955;-80
2022/11/29 12:39:22;;;;;;;;;;;10.10;85.90;;;;;;5048454;28;19920;-80
2022/11/29 12:42:11;;;;;;;;;;;10.20;85.90;;;;;;5033365;28;20113;-81
2022/11/29 12:44:36;;;;;;;;;;;10.10;85.80;;;;;;5023394;28;20015;-80
2022/11/29 12:47:07;;;;;;;;;;;10.10;85.60;;;;;;5051140;28;19944;-80
2022/11/29 12:49:43;;;;;;;;;;;10.10;85.60;;;;;;5029900;28;19924;-83
2022/11/29 12:52:17;;;;;;;;;;;10.10;85.40;;;;;;5049924;28;21373;-84
2022/11/29 12:54:49;;;;;;;;;;;10.00;85.90;;;;;;5054556;28;19913;-83
2022/11/29 12:57:33;;;;;;;;;;;10.10;86.10;;;;;;5056728;28;19913;-84
2022/11/29 12:59:59;;;;;;;;;;;10.10;86.00;;;;;;5043461;28;19920;-84
2022/11/29 13:02:37;;;;;;;;;;;10.10;86.10;;;;;;5050689;28;19913;-84
2022/11/29 13:05:12;;;;;;;;;;;10.00;86.00;;;;;;5050378;28;19909;-83
2022/11/29 13:07:37;;;;;;;;;;;10.00;86.30;;;;;;5049876;28;19999;-83
2022/11/29 13:10:11;;;;;;;;;;;10.00;86.50;;;;;;5050878;28;20020;-83
2022/11/29 13:12:40;;;;;;;;;;;10.10;86.30;;;;;;5048901;28;19951;-83
2022/11/29 13:15:13;;;;;;;;;;;10.00;86.40;;;;;;5033675;28;19920;-83
2022/11/29 13:17:42;;;;;;;;;;;10.00;86.60;;;;;;5029603;28;19924;-83
2022/11/29 13:20:14;;;;;;;;;;;10.10;86.50;;;;;;5047079;28;19981;-82
2022/11/29 13:22:58;;;;;;;;;;;10.00;87.10;;;;;;5026179;28;19974;-85
2022/11/29 13:25:29;;;;;;;;;;;9.90;87.30;;;;;;5037771;28;19944;-82
2022/11/29 13:28:03;;;;;;;;;;;9.90;87.30;;;;;;5052371;28;19920;-82
2022/11/29 13:30:28;;;;;;;;;;;9.90;87.40;;;;;;5050519;28;20031;-82
2022/11/29 13:33:12;;;;;;;;;;;9.90;87.50;;;;;;5052577;28;19918;-82
2022/11/29 13:35:44;;;;;;;;;;;9.90;87.40;;;;;;5040377;28;19958;-82
2022/11/29 13:38:30;;;;;;;;;;;10.00;86.90;;;;;;5038080;28;20281;-82
2022/11/29 13:41:03;;;;;;;;;;;9.80;87.00;;;;;;5027316;28;19920;-82
2022/11/29 13:43:36;;;;;;;;;;;9.80;86.90;;;;;;5037539;28;19924;-82
2022/11/29 13:46:04;;;;;;;;;;;9.80;87.50;;;;;;5040962;28;19917;-83
2022/11/29 13:48:48;;;;;;;;;;;9.80;87.40;;;;;;5056707;28;19917;-79
2022/11/29 13:51:31;;;;;;;;;;;9.80;87.60;;;;;;5042189;28;19921;-90
2022/11/29 13:53:58;;;;;;;;;;;9.90;87.80;;;;;;5036406;28;19923;-84
2022/11/29 13:56:28;;;;;;;;;;;9.80;87.90;;;;;;5036826;28;19913;-82
2022/11/29 13:58:57;;;;;;;;;;;9.90;87.90;;;;;;5055474;28;19913;-84
2022/11/29 14:01:25;;;;;;;;;;;9.80;88.00;;;;;;5032094;28;19913;-84
2022/11/29 14:04:12;;;;;;;;;;;9.80;88.30;;;;;;5049003;28;19913;-84
2022/11/29 14:06:43;;;;;;;;;;;10.00;87.50;;;;;;5050345;28;19913;-85
2022/11/29 14:09:12;;;;;;;;;;;9.80;87.50;;;;;;5037606;28;20015;-86
2022/11/29 14:11:57;;;;;;;;;;;9.80;87.80;;;;;;5059104;28;19916;-86
2022/11/29 14:14:23;;;;;;;;;;;9.90;88.10;;;;;;5047511;28;20385;-84
2022/11/29 14:16:59;;;;;;;;;;;9.80;88.10;;;;;;5044026;28;19909;-84
2022/11/29 14:19:26;;;;;;;;;;;9.80;88.10;;;;;;5041803;28;19912;-84
2022/11/29 14:21:55;;;;;;;;;;;9.90;88.20;;;;;;5040772;28;19913;-84
2022/11/29 14:24:41;;;;;;;;;;;9.90;87.60;;;;;;5044765;28;19992;-83
2022/11/29 14:27:11;;;;;;;;;;;9.90;87.50;;;;;;5056531;28;19908;-83
2022/11/29 14:29:46;;;;;;;;;;;9.80;87.70;;;;;;5039533;28;19932;-80
2022/11/29 14:32:23;;;;;;;;;;;9.90;87.80;;;;;;5033890;28;19928;-83
2022/11/29 14:34:54;;;;;;;;;;;9.90;88.00;;;;;;5044481;28;19964;-86
2022/11/29 14:37:31;;;;;;;;;;;9.90;88.00;;;;;;5043995;28;19912;-84
2022/11/29 14:39:59;;;;;;;;;;;9.90;88.20;;;;;;5040096;28;19917;-85
2022/11/29 14:42:25;;;;;;;;;;;9.90;88.20;;;;;;5033786;28;19931;-85
2022/11/29 14:44:59;;;;;;;;;;;9.90;87.70;;;;;;5038147;28;19932;-86
2022/11/29 14:47:28;;;;;;;;;;;10.00;87.80;;;;;;5047364;28;20000;-85
2022/11/29 14:49:55;;;;;;;;;;;10.00;87.60;;;;;;5035011;28;19923;-85
2022/11/29 14:52:28;;;;;;;;;;;10.00;87.70;;;;;;5036782;28;19921;-85
2022/11/29 14:55:05;;;;;;;;;;;9.90;87.90;;;;;;5035038;28;19913;-86